Time;durP1;ratioP1;P1;durP2;ratioP2;P2;SDS_P1;SDS_P2;PMS_P1;PMS_P2;Temp;Humidity;BMP_temperature;BMP_pressure;BME280_temperature;BME280_humidity;BME280_pressure;Samples;Min_cycle;Max_cycle;Signal;HPM_P1;HPM_P2
2023/04/27 00:02:12;;;;;;;23.10;21.42;;;;;;;;;;5079068;28;20219;-78
2023/04/27 00:04:39;;;;;;;22.67;21.17;;;;;;;;;;5081215;28;20565;-79
2023/04/27 00:07:06;;;;;;;24.73;22.63;;;;;;;;;;5078501;28;20199;-79
2023/04/27 00:09:34;;;;;;;22.27;20.83;;;;;;;;;;5078610;28;20764;-78
2023/04/27 00:12:01;;;;;;;22.63;21.02;;;;;;;;;;5078619;28;20238;-79
2023/04/27 00:14:28;;;;;;;23.52;21.80;;;;;;;;;;5078840;28;20214;-79
2023/04/27 00:16:55;;;;;;;22.67;21.08;;;;;;;;;;5078200;28;20632;-79
2023/04/27 00:19:22;;;;;;;22.67;20.95;;;;;;;;;;5079370;28;20280;-79
2023/04/27 00:21:49;;;;;;;23.67;22.00;;;;;;;;;;5079437;28;20223;-78
2023/04/27 00:24:16;;;;;;;21.98;20.65;;;;;;;;;;5094056;28;20187;-79
2023/04/27 00:26:44;;;;;;;21.17;19.80;;;;;;;;;;5099959;28;20234;-79
2023/04/27 00:29:12;;;;;;;23.23;21.63;;;;;;;;;;5098446;28;20242;-80
2023/04/27 00:31:39;;;;;;;24.98;22.88;;;;;;;;;;5085482;28;20196;-80
2023/04/27 00:34:05;;;;;;;23.05;21.55;;;;;;;;;;5082005;28;20203;-80
2023/04/27 00:36:34;;;;;;;22.50;20.90;;;;;;;;;;5077242;28;20223;-79
2023/04/27 00:39:01;;;;;;;23.08;21.50;;;;;;;;;;5078859;28;20223;-80
2023/04/27 00:41:28;;;;;;;24.45;22.58;;;;;;;;;;5077761;28;20219;-79
2023/04/27 00:43:56;;;;;;;22.80;21.30;;;;;;;;;;5078005;28;20204;-79
2023/04/27 00:46:23;;;;;;;22.85;21.00;;;;;;;;;;5076836;28;20195;-79
2023/04/27 00:48:50;;;;;;;22.95;21.45;;;;;;;;;;5077123;28;20265;-79
2023/04/27 00:51:18;;;;;;;22.77;21.38;;;;;;;;;;5077336;28;20200;-79
2023/04/27 00:53:45;;;;;;;22.00;20.60;;;;;;;;;;5077464;28;20208;-79
2023/04/27 00:56:13;;;;;;;22.38;20.98;;;;;;;;;;5076445;28;20199;-79
2023/04/27 00:58:40;;;;;;;23.65;21.75;;;;;;;;;;5077133;28;20223;-79
2023/04/27 01:01:10;;;;;;;23.45;21.83;;;;;;;;;;5077093;28;20241;-79
2023/04/27 01:03:37;;;;;;;22.02;20.52;;;;;;;;;;5076074;28;20212;-79
2023/04/27 01:06:04;;;;;;;23.48;21.88;;;;;;;;;;5076541;28;20606;-79
2023/04/27 01:08:31;;;;;;;23.65;21.80;;;;;;;;;;5077526;28;20241;-79
2023/04/27 01:10:58;;;;;;;22.35;20.85;;;;;;;;;;5076369;28;20289;-79
2023/04/27 01:13:25;;;;;;;21.92;20.25;;;;;;;;;;5076460;28;20252;-78
2023/04/27 01:15:52;;;;;;;22.45;20.60;;;;;;;;;;5076331;28;20230;-79
2023/04/27 01:18:21;;;;;;;23.60;21.42;;;;;;;;;;5076768;28;20206;-79
2023/04/27 01:20:48;;;;;;;22.70;21.30;;;;;;;;;;5076205;28;20302;-78
2023/04/27 01:23:17;;;;;;;22.95;21.00;;;;;;;;;;5076892;28;20223;-79
2023/04/27 01:25:44;;;;;;;23.90;21.67;;;;;;;;;;5076083;28;20233;-79
2023/04/27 01:28:11;;;;;;;21.77;20.42;;;;;;;;;;5076510;28;20204;-78
2023/04/27 01:30:38;;;;;;;20.95;19.73;;;;;;;;;;5076614;28;20241;-79
2023/04/27 01:33:05;;;;;;;22.20;20.60;;;;;;;;;;5076549;28;20253;-79
2023/04/27 01:35:32;;;;;;;22.88;21.08;;;;;;;;;;5076955;28;20233;-78
2023/04/27 01:37:59;;;;;;;21.80;20.20;;;;;;;;;;5076332;28;20200;-79
2023/04/27 01:40:28;;;;;;;23.17;21.60;;;;;;;;;;5075736;28;20220;-79
2023/04/27 01:42:55;;;;;;;22.65;21.13;;;;;;;;;;5076469;28;20630;-79
2023/04/27 01:45:22;;;;;;;22.77;21.23;;;;;;;;;;5076458;28;20207;-79
2023/04/27 01:47:51;;;;;;;22.50;20.90;;;;;;;;;;5076371;28;20199;-80
2023/04/27 01:50:18;;;;;;;21.75;20.25;;;;;;;;;;5079119;28;20238;-79
2023/04/27 01:52:45;;;;;;;21.60;20.20;;;;;;;;;;5079374;28;20204;-79
2023/04/27 01:55:12;;;;;;;22.27;20.77;;;;;;;;;;5078527;28;20253;-79
2023/04/27 01:57:40;;;;;;;24.83;23.23;;;;;;;;;;5076754;28;20281;-78
2023/04/27 02:00:09;;;;;;;21.80;20.33;;;;;;;;;;5076127;28;20222;-79
2023/04/27 02:02:35;;;;;;;22.90;21.50;;;;;;;;;;5076207;28;20856;-80
2023/04/27 02:05:03;;;;;;;21.33;20.10;;;;;;;;;;5076638;28;20203;-79
2023/04/27 02:07:30;;;;;;;22.48;20.88;;;;;;;;;;5076475;28;20211;-79
2023/04/27 02:09:57;;;;;;;22.73;20.90;;;;;;;;;;5076392;28;20298;-80
2023/04/27 02:12:24;;;;;;;21.67;20.27;;;;;;;;;;5076350;28;20920;-79
2023/04/27 02:14:52;;;;;;;22.80;21.40;;;;;;;;;;5076380;28;20208;-79
2023/04/27 02:17:19;;;;;;;22.15;20.90;;;;;;;;;;5075770;28;20203;-79
2023/04/27 02:19:47;;;;;;;22.83;21.02;;;;;;;;;;5075718;28;20242;-79
2023/04/27 02:22:15;;;;;;;21.75;20.50;;;;;;;;;;5076686;28;20272;-79
2023/04/27 02:24:42;;;;;;;22.63;20.98;;;;;;;;;;5077043;28;20257;-79
2023/04/27 02:27:09;;;;;;;22.48;20.98;;;;;;;;;;5076526;28;20199;-80
2023/04/27 02:29:37;;;;;;;22.83;21.38;;;;;;;;;;5076622;28;20726;-79
2023/04/27 02:32:06;;;;;;;22.60;21.30;;;;;;;;;;5076326;28;20641;-79
2023/04/27 02:34:33;;;;;;;21.67;20.38;;;;;;;;;;5076334;28;20255;-78
2023/04/27 02:37:00;;;;;;;23.50;21.20;;;;;;;;;;5079039;28;20252;-79
2023/04/27 02:39:27;;;;;;;22.70;21.00;;;;;;;;;;5076551;28;20224;-79
2023/04/27 02:41:54;;;;;;;22.15;20.65;;;;;;;;;;5076643;28;20249;-79
2023/04/27 02:44:21;;;;;;;22.35;20.77;;;;;;;;;;5076666;28;20204;-78
2023/04/27 02:46:48;;;;;;;21.42;20.05;;;;;;;;;;5075987;28;20215;-80
2023/04/27 02:49:17;;;;;;;21.67;20.27;;;;;;;;;;5076137;28;20227;-80
2023/04/27 02:51:44;;;;;;;21.27;19.85;;;;;;;;;;5076132;28;20261;-78
2023/04/27 02:54:11;;;;;;;21.58;20.30;;;;;;;;;;5076107;28;20207;-79
2023/04/27 02:56:38;;;;;;;23.25;21.30;;;;;;;;;;5075284;28;20668;-79
2023/04/27 02:59:05;;;;;;;22.00;20.70;;;;;;;;;;5077243;28;20249;-79
2023/04/27 03:01:32;;;;;;;21.48;20.08;;;;;;;;;;5076251;28;20257;-79
2023/04/27 03:03:59;;;;;;;21.50;20.08;;;;;;;;;;5076774;28;20304;-79
2023/04/27 03:06:27;;;;;;;21.40;20.00;;;;;;;;;;5075583;28;20276;-79
2023/04/27 03:08:54;;;;;;;22.13;20.65;;;;;;;;;;5076124;28;20276;-78
2023/04/27 03:11:21;;;;;;;22.50;20.58;;;;;;;;;;5076701;28;20210;-79
2023/04/27 03:13:48;;;;;;;22.65;21.02;;;;;;;;;;5077154;28;20222;-79
2023/04/27 03:16:16;;;;;;;21.50;20.20;;;;;;;;;;5075564;28;20276;-79
2023/04/27 03:18:43;;;;;;;21.45;20.05;;;;;;;;;;5076160;28;20630;-79
2023/04/27 03:21:10;;;;;;;22.73;20.88;;;;;;;;;;5075817;28;20260;-79
2023/04/27 03:23:39;;;;;;;21.75;20.25;;;;;;;;;;5076266;28;20242;-79
2023/04/27 03:26:07;;;;;;;23.25;21.80;;;;;;;;;;5075669;28;20205;-79
2023/04/27 03:28:34;;;;;;;21.27;20.05;;;;;;;;;;5079404;28;20223;-80
2023/04/27 03:31:01;;;;;;;21.70;20.30;;;;;;;;;;5081597;28;20208;-79
2023/04/27 03:33:28;;;;;;;21.92;20.23;;;;;;;;;;5075964;28;20207;-79
2023/04/27 03:35:56;;;;;;;21.25;19.98;;;;;;;;;;5075484;28;20231;-79
2023/04/27 03:38:24;;;;;;;23.20;20.80;;;;;;;;;;5076338;28;20204;-79
2023/04/27 03:40:53;;;;;;;23.40;21.80;;;;;;;;;;5075556;28;20529;-79
2023/04/27 03:43:20;;;;;;;23.20;21.70;;;;;;;;;;5075794;28;20257;-79
2023/04/27 03:45:47;;;;;;;23.58;21.88;;;;;;;;;;5076012;28;20257;-78
2023/04/27 03:48:15;;;;;;;21.42;20.17;;;;;;;;;;5078855;28;20229;-79
2023/04/27 03:50:42;;;;;;;344.50;89.65;;;;;;;;;;5084033;28;20199;-81
2023/04/27 03:53:10;;;;;;;23.85;21.73;;;;;;;;;;5081142;28;20254;-80
2023/04/27 03:55:38;;;;;;;23.45;21.80;;;;;;;;;;5082551;28;20234;-80
2023/04/27 03:58:09;;;;;;;22.75;21.13;;;;;;;;;;5083033;28;20227;-80
2023/04/27 04:00:36;;;;;;;21.40;20.10;;;;;;;;;;5079082;28;20227;-78
2023/04/27 04:03:03;;;;;;;21.70;20.30;;;;;;;;;;5078000;28;20689;-78
2023/04/27 04:05:30;;;;;;;23.48;21.60;;;;;;;;;;5077346;28;20207;-78
2023/04/27 04:07:57;;;;;;;22.02;20.30;;;;;;;;;;5077761;28;20199;-78
2023/04/27 04:10:25;;;;;;;21.45;20.15;;;;;;;;;;5075036;28;20228;-78
2023/04/27 04:12:51;;;;;;;23.55;21.60;;;;;;;;;;5074869;28;20200;-77
2023/04/27 04:15:20;;;;;;;25.50;23.10;;;;;;;;;;5075203;28;20200;-77
2023/04/27 04:17:48;;;;;;;378.02;96.50;;;;;;;;;;5074456;28;20208;-77
2023/04/27 04:20:15;;;;;;;369.30;93.60;;;;;;;;;;5073873;28;20228;-78
2023/04/27 04:22:43;;;;;;;365.25;93.13;;;;;;;;;;5074621;28;20314;-77
2023/04/27 04:25:10;;;;;;;369.08;91.80;;;;;;;;;;5074645;28;20234;-77
2023/04/27 04:27:37;;;;;;;367.05;99.30;;;;;;;;;;5074327;28;20614;-77
2023/04/27 04:30:05;;;;;;;360.48;95.15;;;;;;;;;;5075178;28;20224;-78
2023/04/27 04:32:36;;;;;;;356.92;91.05;;;;;;;;;;5074811;28;20196;-78
2023/04/27 04:35:04;;;;;;;373.55;93.20;;;;;;;;;;5074559;28;20215;-77
2023/04/27 04:37:33;;;;;;;358.65;100.63;;;;;;;;;;5076348;28;20208;-79
2023/04/27 04:40:00;;;;;;;25.38;22.90;;;;;;;;;;5080323;28;20224;-78
2023/04/27 04:42:27;;;;;;;22.55;21.08;;;;;;;;;;5079882;28;20255;-78
2023/04/27 04:44:55;;;;;;;22.73;21.23;;;;;;;;;;5088295;28;20200;-78
2023/04/27 04:47:22;;;;;;;22.48;20.98;;;;;;;;;;5092145;28;20196;-78
2023/04/27 04:49:51;;;;;;;22.88;21.38;;;;;;;;;;5090580;28;20227;-77
2023/04/27 04:52:18;;;;;;;22.00;20.55;;;;;;;;;;5080583;28;20261;-77
2023/04/27 04:54:46;;;;;;;23.85;21.42;;;;;;;;;;5077435;28;20207;-78
2023/04/27 04:57:13;;;;;;;22.80;21.30;;;;;;;;;;5076916;28;20241;-77
2023/04/27 04:59:41;;;;;;;24.23;22.17;;;;;;;;;;5076354;28;20223;-78
2023/04/27 05:02:08;;;;;;;22.17;20.63;;;;;;;;;;5079497;28;20237;-79
2023/04/27 05:04:35;;;;;;;21.55;20.15;;;;;;;;;;5077401;28;20280;-77
2023/04/27 05:07:05;;;;;;;23.15;21.65;;;;;;;;;;5076300;28;20203;-78
2023/04/27 05:09:32;;;;;;;22.80;21.40;;;;;;;;;;5077274;28;20231;-77
2023/04/27 05:12:00;;;;;;;22.08;20.60;;;;;;;;;;5075793;28;20211;-77
2023/04/27 05:14:27;;;;;;;23.15;21.58;;;;;;;;;;5076173;28;20199;-77
2023/04/27 05:16:54;;;;;;;21.20;19.90;;;;;;;;;;5075398;28;20733;-77
2023/04/27 05:19:21;;;;;;;22.73;20.92;;;;;;;;;;5076281;28;20634;-77
2023/04/27 05:21:48;;;;;;;22.40;20.80;;;;;;;;;;5076451;28;20249;-78
2023/04/27 05:24:16;;;;;;;22.38;20.73;;;;;;;;;;5075846;28;20310;-77
2023/04/27 05:26:44;;;;;;;22.75;21.00;;;;;;;;;;5075698;28;20204;-78
2023/04/27 05:29:11;;;;;;;21.85;20.45;;;;;;;;;;5076099;28;20273;-78
2023/04/27 05:31:38;;;;;;;22.38;21.08;;;;;;;;;;5076970;28;20208;-77
2023/04/27 05:34:05;;;;;;;23.48;21.77;;;;;;;;;;5075694;28;20283;-77
2023/04/27 05:36:32;;;;;;;22.67;20.88;;;;;;;;;;5075117;28;20248;-77
2023/04/27 05:38:59;;;;;;;22.90;21.02;;;;;;;;;;5075839;28;20223;-77
2023/04/27 05:41:27;;;;;;;21.92;20.63;;;;;;;;;;5075387;28;20211;-78
2023/04/27 05:43:54;;;;;;;22.30;20.70;;;;;;;;;;5075642;28;20780;-77
2023/04/27 05:46:21;;;;;;;21.65;20.08;;;;;;;;;;5075207;28;20584;-78
2023/04/27 05:48:48;;;;;;;21.77;20.48;;;;;;;;;;5075701;28;20223;-77
2023/04/27 05:51:16;;;;;;;22.65;21.23;;;;;;;;;;5075437;28;20660;-77
2023/04/27 05:53:43;;;;;;;22.50;20.92;;;;;;;;;;5075910;28;20200;-77
2023/04/27 05:56:11;;;;;;;21.80;20.30;;;;;;;;;;5075022;28;20297;-77
2023/04/27 05:58:39;;;;;;;21.75;20.15;;;;;;;;;;5074961;28;20219;-77
2023/04/27 06:01:07;;;;;;;21.95;20.42;;;;;;;;;;5075629;28;20664;-77
2023/04/27 06:03:34;;;;;;;22.42;20.92;;;;;;;;;;5075653;28;20691;-77
2023/04/27 06:06:01;;;;;;;20.98;19.40;;;;;;;;;;5075221;28;20241;-77
2023/04/27 06:08:29;;;;;;;21.75;20.25;;;;;;;;;;5075898;28;20261;-77
2023/04/27 06:10:56;;;;;;;20.77;19.20;;;;;;;;;;5075033;28;20207;-77
2023/04/27 06:13:23;;;;;;;21.55;19.98;;;;;;;;;;5075225;28;20254;-77
2023/04/27 06:15:51;;;;;;;22.83;21.42;;;;;;;;;;5074654;28;20207;-77
2023/04/27 06:18:18;;;;;;;21.05;19.75;;;;;;;;;;5075388;28;20212;-77
2023/04/27 06:20:45;;;;;;;21.40;20.23;;;;;;;;;;5075960;28;20234;-77
2023/04/27 06:23:13;;;;;;;21.83;20.45;;;;;;;;;;5077838;28;20255;-77
2023/04/27 06:25:40;;;;;;;21.70;20.30;;;;;;;;;;5078624;28;20255;-79
2023/04/27 06:28:07;;;;;;;20.60;19.23;;;;;;;;;;5080398;28;20241;-79
2023/04/27 06:30:34;;;;;;;21.15;19.88;;;;;;;;;;5079339;28;20566;-78
2023/04/27 06:33:02;;;;;;;21.65;20.35;;;;;;;;;;5079529;28;20235;-79
2023/04/27 06:35:30;;;;;;;21.08;19.88;;;;;;;;;;5075138;28;20203;-77
2023/04/27 06:37:57;;;;;;;20.95;19.63;;;;;;;;;;5074643;28;20268;-77
2023/04/27 06:40:25;;;;;;;22.33;20.92;;;;;;;;;;5074915;28;20254;-77
2023/04/27 06:42:52;;;;;;;21.58;20.17;;;;;;;;;;5075127;28;20211;-77
2023/04/27 06:45:19;;;;;;;21.13;19.83;;;;;;;;;;5077636;28;20196;-78
2023/04/27 06:47:46;;;;;;;22.65;21.20;;;;;;;;;;5074668;28;20656;-77
2023/04/27 06:50:16;;;;;;;21.23;19.93;;;;;;;;;;5075726;28;20257;-77
2023/04/27 06:52:43;;;;;;;21.23;19.70;;;;;;;;;;5077273;28;20447;-78
2023/04/27 06:55:10;;;;;;;21.77;20.47;;;;;;;;;;5076924;28;20208;-78
2023/04/27 06:57:37;;;;;;;21.63;20.23;;;;;;;;;;5075222;28;20428;-78
2023/04/27 07:00:05;;;;;;;22.10;20.63;;;;;;;;;;5075900;28;21027;-78
2023/04/27 07:02:32;;;;;;;23.10;21.50;;;;;;;;;;5075008;28;20207;-77
2023/04/27 07:04:59;;;;;;;21.70;20.50;;;;;;;;;;5076290;28;20273;-78
2023/04/27 07:07:27;;;;;;;22.35;20.95;;;;;;;;;;5077283;28;20449;-78
2023/04/27 07:09:54;;;;;;;21.97;20.30;;;;;;;;;;5085169;28;20223;-78
2023/04/27 07:12:21;;;;;;;23.05;21.48;;;;;;;;;;5079490;28;20507;-78
2023/04/27 07:14:49;;;;;;;22.73;21.33;;;;;;;;;;5077979;28;20199;-77
2023/04/27 07:17:16;;;;;;;21.83;20.53;;;;;;;;;;5076540;28;20195;-77
2023/04/27 07:19:43;;;;;;;22.70;21.00;;;;;;;;;;5077692;28;20914;-78
2023/04/27 07:22:10;;;;;;;22.23;20.55;;;;;;;;;;5078544;28;20454;-78
2023/04/27 07:24:39;;;;;;;22.35;20.95;;;;;;;;;;5079224;28;20235;-77
2023/04/27 07:27:06;;;;;;;22.53;21.23;;;;;;;;;;5076995;28;20203;-78
2023/04/27 07:29:33;;;;;;;22.10;20.40;;;;;;;;;;5078692;28;20477;-89
2023/04/27 07:32:00;;;;;;;22.30;20.80;;;;;;;;;;5078858;28;20486;-82
2023/04/27 07:34:27;;;;;;;21.60;20.00;;;;;;;;;;5076972;28;20445;-77
2023/04/27 07:36:54;;;;;;;21.57;20.23;;;;;;;;;;5074640;28;20409;-76
2023/04/27 07:39:21;;;;;;;21.60;19.95;;;;;;;;;;5059355;28;20557;-85
2023/04/27 07:41:50;;;;;;;23.27;21.43;;;;;;;;;;5055037;28;20196;-83
2023/04/27 07:44:18;;;;;;;22.67;20.97;;;;;;;;;;5056255;28;20578;-83
2023/04/27 07:46:46;;;;;;;22.38;20.75;;;;;;;;;;5056161;28;20522;-85
2023/04/27 07:49:13;;;;;;;21.50;20.20;;;;;;;;;;5061872;28;20251;-84
2023/04/27 07:51:40;;;;;;;21.63;20.20;;;;;;;;;;5057592;28;20426;-85
2023/04/27 07:54:07;;;;;;;22.10;20.70;;;;;;;;;;5056502;28;20446;-84
2023/04/27 07:56:34;;;;;;;21.43;20.13;;;;;;;;;;5055494;28;20500;-84
2023/04/27 07:59:03;;;;;;;22.50;20.87;;;;;;;;;;5056943;28;20573;-79
2023/04/27 08:01:30;;;;;;;23.00;21.10;;;;;;;;;;5061046;28;20442;-79
2023/04/27 08:03:57;;;;;;;23.70;22.07;;;;;;;;;;5060199;28;20482;-80
2023/04/27 08:06:24;;;;;;;22.23;20.90;;;;;;;;;;5060396;28;20451;-80
2023/04/27 08:08:51;;;;;;;23.23;21.83;;;;;;;;;;5056540;28;20231;-78
2023/04/27 08:11:18;;;;;;;22.60;21.25;;;;;;;;;;5054543;28;20843;-83
2023/04/27 08:13:45;;;;;;;22.03;20.77;;;;;;;;;;5060256;28;20285;-81
2023/04/27 08:16:14;;;;;;;23.38;21.75;;;;;;;;;;5057975;28;20511;-84
2023/04/27 08:18:41;;;;;;;22.67;21.17;;;;;;;;;;5056989;28;20220;-85
2023/04/27 08:21:08;;;;;;;23.13;21.73;;;;;;;;;;5055896;28;20476;-84
2023/04/27 08:23:36;;;;;;;23.53;22.17;;;;;;;;;;5057179;28;20534;-77
2023/04/27 08:26:03;;;;;;;21.80;20.60;;;;;;;;;;5058585;28;20479;-77
2023/04/27 08:28:30;;;;;;;22.70;21.20;;;;;;;;;;5057851;28;20429;-78
2023/04/27 08:30:57;;;;;;;77.95;41.42;;;;;;;;;;5056273;28;20429;-77
2023/04/27 08:33:25;;;;;;;22.63;21.07;;;;;;;;;;5058471;28;20556;-77
2023/04/27 08:35:54;;;;;;;22.97;21.40;;;;;;;;;;5058298;28;20438;-83
2023/04/27 08:38:21;;;;;;;22.10;20.33;;;;;;;;;;5056936;28;20890;-82
2023/04/27 08:40:48;;;;;;;22.57;20.87;;;;;;;;;;5060217;28;20429;-82
2023/04/27 08:43:15;;;;;;;23.17;21.37;;;;;;;;;;5055191;28;20446;-76
2023/04/27 08:45:48;;;;;;;23.60;22.13;;;;;;;;;;5052200;28;21021;-76
2023/04/27 08:48:15;;;;;;;24.45;22.35;;;;;;;;;;5053275;28;20516;-77
2023/04/27 08:50:44;;;;;;;22.93;21.60;;;;;;;;;;5056180;28;20657;-79
2023/04/27 08:53:16;;;;;;;23.00;21.70;;;;;;;;;;5055517;28;20508;-78
2023/04/27 08:55:43;;;;;;;25.53;23.70;;;;;;;;;;5054345;28;20950;-78
2023/04/27 08:58:10;;;;;;;23.10;21.70;;;;;;;;;;5054393;28;20469;-78
2023/04/27 09:00:41;;;;;;;25.00;22.40;;;;;;;;;;5055156;28;20520;-77
2023/04/27 09:03:08;;;;;;;23.67;21.97;;;;;;;;;;5054967;28;20907;-78
2023/04/27 09:05:35;;;;;;;23.47;21.67;;;;;;;;;;5054517;28;20552;-78
2023/04/27 09:08:06;;;;;;;23.10;21.70;;;;;;;;;;5054090;28;20452;-78
2023/04/27 09:10:44;;;;;;;23.67;22.03;;;;;;;;;;5060667;28;20475;-86
2023/04/27 09:13:11;;;;;;;24.77;22.77;;;;;;;;;;5069678;28;20553;-77
2023/04/27 09:15:45;;;;;;;25.47;23.60;;;;;;;;;;5069870;28;20417;-77
2023/04/27 09:18:19;;;;;;;22.63;20.93;;;;;;;;;;5057203;28;20444;-78
2023/04/27 09:20:46;;;;;;;22.10;20.80;;;;;;;;;;5055978;28;20425;-77
2023/04/27 09:23:26;;;;;;;23.03;21.33;;;;;;;;;;5055470;28;20433;-78
2023/04/27 09:25:54;;;;;;;25.20;23.17;;;;;;;;;;5055277;28;20453;-78
2023/04/27 09:28:21;;;;;;;23.67;22.07;;;;;;;;;;5053401;28;20433;-77
2023/04/27 09:30:54;;;;;;;22.47;21.07;;;;;;;;;;5052928;28;20531;-77
2023/04/27 09:33:25;;;;;;;23.53;21.80;;;;;;;;;;5052543;28;20556;-77
2023/04/27 09:35:52;;;;;;;23.47;21.87;;;;;;;;;;5052644;28;20520;-78
2023/04/27 09:38:19;;;;;;;23.33;21.83;;;;;;;;;;5053444;28;20446;-77
2023/04/27 09:40:48;;;;;;;22.80;21.40;;;;;;;;;;5055833;28;20527;-80
2023/04/27 09:43:16;;;;;;;24.27;22.47;;;;;;;;;;5056035;28;20483;-78
2023/04/27 09:45:43;;;;;;;23.20;21.80;;;;;;;;;;5054417;28;20458;-77
2023/04/27 09:48:10;;;;;;;22.70;20.87;;;;;;;;;;5055346;28;20842;-78
2023/04/27 09:50:37;;;;;;;23.10;21.70;;;;;;;;;;5055958;28;20441;-78
2023/04/27 09:53:06;;;;;;;24.43;22.57;;;;;;;;;;5056946;28;20417;-78
2023/04/27 09:55:37;;;;;;;24.00;22.47;;;;;;;;;;5056398;28;20855;-77
2023/04/27 09:58:12;;;;;;;24.70;22.87;;;;;;;;;;5057546;28;20439;-79
2023/04/27 10:00:48;;;;;;;24.43;22.83;;;;;;;;;;5057577;28;20863;-79
2023/04/27 10:03:20;;;;;;;24.20;22.80;;;;;;;;;;5057621;28;20502;-79
2023/04/27 10:06:08;;;;;;;25.17;23.47;;;;;;;;;;5056849;28;20442;-79
2023/04/27 10:08:37;;;;;;;26.27;24.03;;;;;;;;;;5057344;28;21013;-78
2023/04/27 10:11:14;;;;;;;25.30;23.70;;;;;;;;;;5058501;28;20512;-79
2023/04/27 10:13:51;;;;;;;26.00;24.00;;;;;;;;;;5056788;28;20832;-78
2023/04/27 10:16:18;;;;;;;24.17;22.77;;;;;;;;;;5056470;28;20439;-79
2023/04/27 10:18:51;;;;;;;24.00;22.30;;;;;;;;;;5055559;28;20465;-81
2023/04/27 10:21:18;;;;;;;24.60;23.20;;;;;;;;;;5056398;28;20494;-81
2023/04/27 10:23:49;;;;;;;24.27;22.70;;;;;;;;;;5055380;28;20425;-80
2023/04/27 10:26:26;;;;;;;22.70;21.40;;;;;;;;;;5054441;28;20515;-81
2023/04/27 10:28:58;;;;;;;24.50;22.90;;;;;;;;;;5056486;28;20790;-82
2023/04/27 10:31:28;;;;;;;24.47;22.97;;;;;;;;;;5055817;28;20434;-81
2023/04/27 10:34:05;;;;;;;25.00;23.40;;;;;;;;;;5056201;28;20445;-81
2023/04/27 10:36:35;;;;;;;25.60;24.00;;;;;;;;;;5051612;28;20456;-81
2023/04/27 10:39:03;;;;;;;23.83;22.33;;;;;;;;;;5052645;28;20441;-78
2023/04/27 10:41:35;;;;;;;24.40;22.83;;;;;;;;;;5052220;28;20474;-79
2023/04/27 10:44:15;;;;;;;24.13;22.40;;;;;;;;;;5051802;28;20808;-78
2023/04/27 10:46:50;;;;;;;25.67;23.77;;;;;;;;;;5051659;28;20439;-78
2023/04/27 10:49:17;;;;;;;437.52;179.27;;;;;;;;;;5051420;28;20441;-79
2023/04/27 10:51:44;;;;;;;431.02;166.43;;;;;;;;;;5051792;28;20258;-77
2023/04/27 10:54:12;;;;;;;432.60;173.85;;;;;;;;;;5051372;28;20308;-77
2023/04/27 10:56:39;;;;;;;25.10;23.37;;;;;;;;;;5051321;28;20258;-77
2023/04/27 10:59:06;;;;;;;183.13;107.13;;;;;;;;;;5051373;28;20445;-76
2023/04/27 11:01:35;;;;;;;144.77;87.07;;;;;;;;;;5051265;28;20454;-77
2023/04/27 11:04:02;;;;;;;26.73;24.47;;;;;;;;;;5051080;28;20478;-77
2023/04/27 11:06:30;;;;;;;25.97;24.07;;;;;;;;;;5050030;28;20457;-78
2023/04/27 11:08:58;;;;;;;26.23;24.13;;;;;;;;;;5051230;28;20467;-77
2023/04/27 11:11:25;;;;;;;26.53;24.63;;;;;;;;;;5050895;28;20950;-77
2023/04/27 11:13:52;;;;;;;25.73;24.03;;;;;;;;;;5050888;28;20475;-77
2023/04/27 11:16:19;;;;;;;26.37;24.57;;;;;;;;;;5050613;28;20429;-79
2023/04/27 11:18:48;;;;;;;24.57;23.10;;;;;;;;;;5051330;28;20445;-77
2023/04/27 11:21:15;;;;;;;23.87;22.37;;;;;;;;;;5052618;28;20817;-78
2023/04/27 11:23:43;;;;;;;25.17;23.27;;;;;;;;;;5053521;28;20498;-76
2023/04/27 11:26:11;;;;;;;24.40;22.90;;;;;;;;;;5056005;28;20490;-79
2023/04/27 11:28:38;;;;;;;23.40;21.90;;;;;;;;;;5051731;28;20488;-84
2023/04/27 11:31:05;;;;;;;25.03;23.33;;;;;;;;;;5051909;28;20428;-78
2023/04/27 11:33:32;;;;;;;24.70;23.20;;;;;;;;;;5052025;28;20454;-78
2023/04/27 11:36:01;;;;;;;23.90;22.20;;;;;;;;;;5051575;28;20459;-84
2023/04/27 11:38:33;;;;;;;24.67;22.77;;;;;;;;;;5051160;28;20457;-77
2023/04/27 11:41:00;;;;;;;22.87;21.57;;;;;;;;;;5052877;28;20431;-78
2023/04/27 11:43:28;;;;;;;23.30;21.80;;;;;;;;;;5054245;28;20443;-77
2023/04/27 11:45:57;;;;;;;23.60;21.77;;;;;;;;;;5054776;28;20497;-78
2023/04/27 11:48:24;;;;;;;22.30;20.93;;;;;;;;;;5054345;28;20433;-78
2023/04/27 11:50:52;;;;;;;23.50;22.00;;;;;;;;;;5054820;28;20450;-78
2023/04/27 11:53:29;;;;;;;23.50;22.03;;;;;;;;;;5054215;28;20433;-78
2023/04/27 11:55:57;;;;;;;23.80;22.20;;;;;;;;;;5054586;28;20459;-78
2023/04/27 11:58:25;;;;;;;23.50;21.90;;;;;;;;;;5055376;28;20451;-78
2023/04/27 12:00:52;;;;;;;23.90;22.20;;;;;;;;;;5054964;28;20481;-78
2023/04/27 12:03:19;;;;;;;24.57;22.97;;;;;;;;;;5053888;28;20473;-78
2023/04/27 12:05:50;;;;;;;25.07;23.37;;;;;;;;;;5053123;28;20486;-78
2023/04/27 12:08:17;;;;;;;25.10;23.40;;;;;;;;;;5054144;28;20485;-78
2023/04/27 12:10:46;;;;;;;23.50;22.10;;;;;;;;;;5055458;28;20508;-78
2023/04/27 12:13:13;;;;;;;22.47;21.10;;;;;;;;;;5057342;28;20945;-78
2023/04/27 12:15:40;;;;;;;24.00;22.40;;;;;;;;;;5059603;28;20422;-78
2023/04/27 12:18:07;;;;;;;23.63;21.93;;;;;;;;;;5059755;28;20417;-78
2023/04/27 12:20:34;;;;;;;23.27;21.87;;;;;;;;;;5059208;28;21028;-78
2023/04/27 12:23:01;;;;;;;24.40;22.90;;;;;;;;;;5058049;28;20446;-79
2023/04/27 12:25:29;;;;;;;23.80;22.40;;;;;;;;;;5057644;28;20518;-79
2023/04/27 12:27:57;;;;;;;23.60;22.07;;;;;;;;;;5057246;28;20446;-78
2023/04/27 12:30:24;;;;;;;23.37;21.90;;;;;;;;;;5057194;28;20463;-79
2023/04/27 12:32:51;;;;;;;24.87;23.17;;;;;;;;;;5057395;28;20433;-78
2023/04/27 12:35:18;;;;;;;22.00;20.80;;;;;;;;;;5057223;28;20504;-78
2023/04/27 12:37:47;;;;;;;24.83;23.10;;;;;;;;;;5056417;28;20454;-79
2023/04/27 12:40:14;;;;;;;24.73;23.03;;;;;;;;;;5058620;28;20541;-79
2023/04/27 12:42:41;;;;;;;24.87;23.30;;;;;;;;;;5057758;28;20938;-78
2023/04/27 12:45:10;;;;;;;25.37;23.67;;;;;;;;;;5057849;28;20475;-79
2023/04/27 12:47:37;;;;;;;23.83;22.30;;;;;;;;;;5057989;28;20417;-79
2023/04/27 12:50:04;;;;;;;24.67;22.87;;;;;;;;;;5057366;28;20470;-79
2023/04/27 12:52:32;;;;;;;25.03;23.40;;;;;;;;;;5058013;28;20943;-80
2023/04/27 12:54:59;;;;;;;25.00;23.20;;;;;;;;;;5055067;28;20494;-77
2023/04/27 12:57:27;;;;;;;24.70;23.20;;;;;;;;;;5056336;28;20521;-78
2023/04/27 12:59:55;;;;;;;25.23;23.53;;;;;;;;;;5054809;28;20547;-77
2023/04/27 13:02:23;;;;;;;25.33;23.43;;;;;;;;;;5058599;28;20482;-78
2023/04/27 13:04:50;;;;;;;23.77;22.17;;;;;;;;;;5059724;28;20601;-78
2023/04/27 13:07:18;;;;;;;25.00;23.40;;;;;;;;;;5057416;28;20465;-78
2023/04/27 13:09:45;;;;;;;25.57;23.97;;;;;;;;;;5057443;28;20916;-78
2023/04/27 13:12:12;;;;;;;25.03;23.10;;;;;;;;;;5059034;28;20451;-78
2023/04/27 13:14:41;;;;;;;25.23;23.50;;;;;;;;;;5057558;28;20451;-78
2023/04/27 13:17:08;;;;;;;26.03;24.10;;;;;;;;;;5058018;28;20896;-78
2023/04/27 13:19:36;;;;;;;25.60;23.93;;;;;;;;;;5058121;28;20478;-77
2023/04/27 13:22:04;;;;;;;25.70;24.10;;;;;;;;;;5057663;28;20451;-79
2023/04/27 13:24:31;;;;;;;25.97;24.37;;;;;;;;;;5057032;28;20800;-78
2023/04/27 13:26:58;;;;;;;24.70;23.17;;;;;;;;;;5057547;28;20470;-78
2023/04/27 13:29:25;;;;;;;25.43;23.73;;;;;;;;;;5057913;28;20474;-77
2023/04/27 13:31:52;;;;;;;25.97;24.27;;;;;;;;;;5057171;28;21001;-78
2023/04/27 13:34:19;;;;;;;26.00;24.30;;;;;;;;;;5057917;28;20442;-78
2023/04/27 13:36:47;;;;;;;25.90;24.20;;;;;;;;;;5057505;28;20466;-78
2023/04/27 13:39:15;;;;;;;26.87;25.07;;;;;;;;;;5057648;28;20448;-78
2023/04/27 13:41:42;;;;;;;28.57;26.37;;;;;;;;;;5060203;28;20466;-78
2023/04/27 13:44:09;;;;;;;25.60;23.90;;;;;;;;;;5069572;28;20545;-78
2023/04/27 13:46:36;;;;;;;25.83;24.00;;;;;;;;;;5070632;28;20487;-79
2023/04/27 13:49:03;;;;;;;25.10;23.60;;;;;;;;;;5066304;28;20475;-79
2023/04/27 13:51:31;;;;;;;27.40;25.40;;;;;;;;;;5061148;28;20918;-78
2023/04/27 13:54:00;;;;;;;26.27;24.47;;;;;;;;;;5057832;28;20426;-78
2023/04/27 13:56:27;;;;;;;26.50;24.70;;;;;;;;;;5057564;28;20447;-78
2023/04/27 13:58:54;;;;;;;26.40;24.70;;;;;;;;;;5058000;28;20475;-78
2023/04/27 14:01:21;;;;;;;25.47;23.77;;;;;;;;;;5057894;28;20441;-78
2023/04/27 14:03:48;;;;;;;26.30;24.57;;;;;;;;;;5056902;28;20475;-78
2023/04/27 14:06:15;;;;;;;25.70;24.10;;;;;;;;;;5057021;28;20482;-84
2023/04/27 14:08:42;;;;;;;26.70;24.90;;;;;;;;;;5058414;28;20975;-78
2023/04/27 14:11:14;;;;;;;25.10;23.40;;;;;;;;;;5057443;28;20997;-78
2023/04/27 14:13:41;;;;;;;25.73;23.90;;;;;;;;;;5060515;28;20496;-79
2023/04/27 14:16:08;;;;;;;26.30;24.50;;;;;;;;;;5060886;28;20409;-78
2023/04/27 14:18:35;;;;;;;25.90;24.13;;;;;;;;;;5059814;28;20474;-79
2023/04/27 14:21:02;;;;;;;25.57;23.90;;;;;;;;;;5060147;28;20892;-79